sensor_id;sensor_type;location;lat;lon;timestamp;P1;durP1;ratioP1;P2;durP2;ratioP2
46487;SDS011;32202;48.780;9.204;2023-02-15T00:01:18;34.45;;;19.10;;
46487;SDS011;32202;48.780;9.204;2023-02-15T00:03:44;36.70;;;19.85;;
46487;SDS011;32202;48.780;9.204;2023-02-15T00:06:09;36.13;;;20.30;;
46487;SDS011;32202;48.780;9.204;2023-02-15T00:08:35;39.72;;;19.90;;
46487;SDS011;32202;48.780;9.204;2023-02-15T00:11:04;39.00;;;21.30;;
46487;SDS011;32202;48.780;9.204;2023-02-15T00:16:00;39.92;;;20.63;;
46487;SDS011;32202;48.780;9.204;2023-02-15T00:18:27;37.55;;;20.02;;
46487;SDS011;32202;48.780;9.204;2023-02-15T00:20:52;40.50;;;20.15;;
46487;SDS011;32202;48.780;9.204;2023-02-15T00:23:18;40.42;;;20.52;;
46487;SDS011;32202;48.780;9.204;2023-02-15T00:25:43;42.03;;;21.23;;
46487;SDS011;32202;48.780;9.204;2023-02-15T00:28:09;40.97;;;21.33;;
46487;SDS011;32202;48.780;9.204;2023-02-15T00:30:34;40.00;;;19.95;;
46487;SDS011;32202;48.780;9.204;2023-02-15T00:33:00;39.85;;;20.75;;
46487;SDS011;32202;48.780;9.204;2023-02-15T00:35:25;36.83;;;19.25;;
46487;SDS011;32202;48.780;9.204;2023-02-15T00:37:51;37.70;;;20.77;;
46487;SDS011;32202;48.780;9.204;2023-02-15T00:40:17;39.60;;;20.45;;
46487;SDS011;32202;48.780;9.204;2023-02-15T00:42:43;37.13;;;19.70;;
46487;SDS011;32202;48.780;9.204;2023-02-15T00:45:09;39.50;;;20.13;;
46487;SDS011;32202;48.780;9.204;2023-02-15T00:47:34;38.47;;;20.10;;
46487;SDS011;32202;48.780;9.204;2023-02-15T00:50:00;40.38;;;21.42;;
46487;SDS011;32202;48.780;9.204;2023-02-15T00:52:28;35.80;;;19.77;;
46487;SDS011;32202;48.780;9.204;2023-02-15T00:54:53;38.88;;;20.55;;
46487;SDS011;32202;48.780;9.204;2023-02-15T00:57:19;39.17;;;20.08;;
46487;SDS011;32202;48.780;9.204;2023-02-15T00:59:44;37.08;;;20.02;;
46487;SDS011;32202;48.780;9.204;2023-02-15T01:02:10;38.30;;;20.35;;
46487;SDS011;32202;48.780;9.204;2023-02-15T01:04:35;38.63;;;20.08;;
46487;SDS011;32202;48.780;9.204;2023-02-15T01:07:01;38.85;;;19.80;;
46487;SDS011;32202;48.780;9.204;2023-02-15T01:09:28;38.17;;;19.20;;
46487;SDS011;32202;48.780;9.204;2023-02-15T01:11:54;35.70;;;19.58;;
46487;SDS011;32202;48.780;9.204;2023-02-15T01:14:19;37.50;;;19.20;;
46487;SDS011;32202;48.780;9.204;2023-02-15T01:16:45;39.67;;;21.08;;
46487;SDS011;32202;48.780;9.204;2023-02-15T01:19:11;35.33;;;20.02;;
46487;SDS011;32202;48.780;9.204;2023-02-15T01:21:37;38.50;;;20.50;;
46487;SDS011;32202;48.780;9.204;2023-02-15T01:24:02;38.20;;;19.52;;
46487;SDS011;32202;48.780;9.204;2023-02-15T01:26:28;38.17;;;19.52;;
46487;SDS011;32202;48.780;9.204;2023-02-15T01:28:54;36.03;;;18.80;;
46487;SDS011;32202;48.780;9.204;2023-02-15T01:31:20;36.47;;;19.23;;
46487;SDS011;32202;48.780;9.204;2023-02-15T01:33:48;36.03;;;19.08;;
46487;SDS011;32202;48.780;9.204;2023-02-15T01:36:14;38.53;;;19.55;;
46487;SDS011;32202;48.780;9.204;2023-02-15T01:38:42;37.15;;;19.35;;
46487;SDS011;32202;48.780;9.204;2023-02-15T01:41:08;40.25;;;19.65;;
46487;SDS011;32202;48.780;9.204;2023-02-15T01:43:48;34.38;;;19.05;;
46487;SDS011;32202;48.780;9.204;2023-02-15T01:46:19;39.83;;;19.70;;
46487;SDS011;32202;48.780;9.204;2023-02-15T01:48:48;37.30;;;18.77;;
46487;SDS011;32202;48.780;9.204;2023-02-15T01:51:18;37.53;;;19.20;;
46487;SDS011;32202;48.780;9.204;2023-02-15T01:54:09;36.58;;;19.42;;
46487;SDS011;32202;48.780;9.204;2023-02-15T01:57:09;34.20;;;18.65;;
46487;SDS011;32202;48.780;9.204;2023-02-15T01:59:40;40.10;;;19.50;;
46487;SDS011;32202;48.780;9.204;2023-02-15T02:02:10;35.63;;;18.52;;
46487;SDS011;32202;48.780;9.204;2023-02-15T02:04:43;34.35;;;17.50;;
46487;SDS011;32202;48.780;9.204;2023-02-15T02:07:16;35.25;;;17.60;;
46487;SDS011;32202;48.780;9.204;2023-02-15T02:09:45;42.85;;;19.00;;
46487;SDS011;32202;48.780;9.204;2023-02-15T02:12:11;37.17;;;18.42;;
46487;SDS011;32202;48.780;9.204;2023-02-15T02:14:37;37.50;;;18.95;;
46487;SDS011;32202;48.780;9.204;2023-02-15T02:36:55;34.53;;;18.25;;
46487;SDS011;32202;48.780;9.204;2023-02-15T02:42:38;36.95;;;17.38;;
46487;SDS011;32202;48.780;9.204;2023-02-15T02:48:24;33.55;;;17.20;;
46487;SDS011;32202;48.780;9.204;2023-02-15T02:50:53;36.53;;;18.83;;
46487;SDS011;32202;48.780;9.204;2023-02-15T02:53:18;34.20;;;18.15;;
46487;SDS011;32202;48.780;9.204;2023-02-15T02:55:54;33.65;;;17.85;;
46487;SDS011;32202;48.780;9.204;2023-02-15T02:58:42;41.05;;;18.65;;
46487;SDS011;32202;48.780;9.204;2023-02-15T03:01:15;35.47;;;18.10;;
46487;SDS011;32202;48.780;9.204;2023-02-15T03:03:55;32.50;;;17.55;;
46487;SDS011;32202;48.780;9.204;2023-02-15T03:06:29;33.95;;;18.10;;
46487;SDS011;32202;48.780;9.204;2023-02-15T03:09:09;31.08;;;17.35;;
46487;SDS011;32202;48.780;9.204;2023-02-15T03:11:46;33.33;;;17.63;;
46487;SDS011;32202;48.780;9.204;2023-02-15T03:14:14;34.92;;;18.38;;
46487;SDS011;32202;48.780;9.204;2023-02-15T03:16:43;33.57;;;16.57;;
46487;SDS011;32202;48.780;9.204;2023-02-15T03:19:13;35.97;;;18.13;;
46487;SDS011;32202;48.780;9.204;2023-02-15T03:21:49;31.95;;;16.90;;
46487;SDS011;32202;48.780;9.204;2023-02-15T03:24:30;37.07;;;17.80;;
46487;SDS011;32202;48.780;9.204;2023-02-15T03:27:00;35.60;;;17.63;;
46487;SDS011;32202;48.780;9.204;2023-02-15T03:29:31;37.05;;;18.80;;
46487;SDS011;32202;48.780;9.204;2023-02-15T03:31:59;40.17;;;20.42;;
46487;SDS011;32202;48.780;9.204;2023-02-15T03:34:28;41.72;;;22.70;;
46487;SDS011;32202;48.780;9.204;2023-02-15T03:37:03;39.28;;;20.58;;
46487;SDS011;32202;48.780;9.204;2023-02-15T03:39:32;35.50;;;18.52;;
46487;SDS011;32202;48.780;9.204;2023-02-15T03:44:44;36.13;;;18.95;;
46487;SDS011;32202;48.780;9.204;2023-02-15T03:47:23;36.33;;;18.88;;
46487;SDS011;32202;48.780;9.204;2023-02-15T03:50:15;35.13;;;17.80;;
46487;SDS011;32202;48.780;9.204;2023-02-15T03:53:06;36.58;;;17.13;;
46487;SDS011;32202;48.780;9.204;2023-02-15T03:55:34;33.38;;;18.55;;
46487;SDS011;32202;48.780;9.204;2023-02-15T03:58:00;35.40;;;19.10;;
46487;SDS011;32202;48.780;9.204;2023-02-15T04:00:47;34.72;;;17.65;;
46487;SDS011;32202;48.780;9.204;2023-02-15T04:03:39;38.22;;;18.83;;
46487;SDS011;32202;48.780;9.204;2023-02-15T04:06:08;31.88;;;17.52;;
46487;SDS011;32202;48.780;9.204;2023-02-15T04:08:33;34.80;;;18.23;;
46487;SDS011;32202;48.780;9.204;2023-02-15T04:11:17;36.10;;;18.60;;
46487;SDS011;32202;48.780;9.204;2023-02-15T04:13:43;35.33;;;18.60;;
46487;SDS011;32202;48.780;9.204;2023-02-15T04:16:08;32.90;;;17.33;;
46487;SDS011;32202;48.780;9.204;2023-02-15T04:18:35;32.72;;;17.98;;
46487;SDS011;32202;48.780;9.204;2023-02-15T04:21:20;34.08;;;17.23;;
46487;SDS011;32202;48.780;9.204;2023-02-15T04:24:06;35.97;;;16.98;;
46487;SDS011;32202;48.780;9.204;2023-02-15T04:26:50;34.65;;;17.83;;
46487;SDS011;32202;48.780;9.204;2023-02-15T04:29:18;31.98;;;17.90;;
46487;SDS011;32202;48.780;9.204;2023-02-15T04:31:44;38.13;;;17.92;;
46487;SDS011;32202;48.780;9.204;2023-02-15T04:34:09;35.78;;;18.23;;
46487;SDS011;32202;48.780;9.204;2023-02-15T04:36:36;34.45;;;17.40;;
46487;SDS011;32202;48.780;9.204;2023-02-15T04:39:04;35.40;;;18.83;;
46487;SDS011;32202;48.780;9.204;2023-02-15T04:41:30;32.67;;;17.50;;
46487;SDS011;32202;48.780;9.204;2023-02-15T04:43:55;77.55;;;33.25;;
46487;SDS011;32202;48.780;9.204;2023-02-15T04:46:22;193.40;;;79.22;;
46487;SDS011;32202;48.780;9.204;2023-02-15T04:48:47;220.85;;;93.18;;
46487;SDS011;32202;48.780;9.204;2023-02-15T04:51:13;93.38;;;44.10;;
46487;SDS011;32202;48.780;9.204;2023-02-15T04:53:39;36.72;;;18.52;;
46487;SDS011;32202;48.780;9.204;2023-02-15T04:56:04;35.78;;;19.08;;
46487;SDS011;32202;48.780;9.204;2023-02-15T04:58:30;33.85;;;18.08;;
46487;SDS011;32202;48.780;9.204;2023-02-15T05:00:55;35.13;;;18.02;;
46487;SDS011;32202;48.780;9.204;2023-02-15T05:03:22;38.65;;;19.13;;
46487;SDS011;32202;48.780;9.204;2023-02-15T05:05:47;41.58;;;21.90;;
46487;SDS011;32202;48.780;9.204;2023-02-15T05:08:13;34.35;;;19.25;;
46487;SDS011;32202;48.780;9.204;2023-02-15T05:10:39;34.90;;;16.75;;
46487;SDS011;32202;48.780;9.204;2023-02-15T05:13:04;33.42;;;17.75;;
46487;SDS011;32202;48.780;9.204;2023-02-15T05:15:30;39.55;;;19.60;;
46487;SDS011;32202;48.780;9.204;2023-02-15T05:17:55;44.17;;;22.15;;
46487;SDS011;32202;48.780;9.204;2023-02-15T05:20:21;33.92;;;18.05;;
46487;SDS011;32202;48.780;9.204;2023-02-15T05:22:47;34.58;;;18.35;;
46487;SDS011;32202;48.780;9.204;2023-02-15T05:25:12;33.53;;;17.20;;
46487;SDS011;32202;48.780;9.204;2023-02-15T05:27:56;33.95;;;17.13;;
46487;SDS011;32202;48.780;9.204;2023-02-15T05:30:40;34.33;;;17.73;;
46487;SDS011;32202;48.780;9.204;2023-02-15T05:33:06;33.28;;;17.73;;
46487;SDS011;32202;48.780;9.204;2023-02-15T05:35:33;29.60;;;15.65;;
46487;SDS011;32202;48.780;9.204;2023-02-15T05:37:59;31.50;;;16.77;;
46487;SDS011;32202;48.780;9.204;2023-02-15T05:40:24;33.40;;;17.25;;
46487;SDS011;32202;48.780;9.204;2023-02-15T05:42:50;39.92;;;19.33;;
46487;SDS011;32202;48.780;9.204;2023-02-15T05:45:16;37.00;;;17.42;;
46487;SDS011;32202;48.780;9.204;2023-02-15T05:47:42;31.02;;;16.65;;
46487;SDS011;32202;48.780;9.204;2023-02-15T05:50:07;34.55;;;18.08;;
46487;SDS011;32202;48.780;9.204;2023-02-15T05:52:34;32.65;;;17.13;;
46487;SDS011;32202;48.780;9.204;2023-02-15T05:55:00;36.78;;;17.25;;
46487;SDS011;32202;48.780;9.204;2023-02-15T05:57:27;34.42;;;16.70;;
46487;SDS011;32202;48.780;9.204;2023-02-15T05:59:53;39.72;;;19.92;;
46487;SDS011;32202;48.780;9.204;2023-02-15T06:02:18;35.63;;;17.85;;
46487;SDS011;32202;48.780;9.204;2023-02-15T06:04:44;34.13;;;17.17;;
46487;SDS011;32202;48.780;9.204;2023-02-15T06:07:10;33.40;;;17.10;;
46487;SDS011;32202;48.780;9.204;2023-02-15T06:09:35;46.00;;;22.45;;
46487;SDS011;32202;48.780;9.204;2023-02-15T06:12:01;39.53;;;18.90;;
46487;SDS011;32202;48.780;9.204;2023-02-15T06:14:27;37.63;;;17.52;;
46487;SDS011;32202;48.780;9.204;2023-02-15T06:16:52;40.83;;;19.73;;
46487;SDS011;32202;48.780;9.204;2023-02-15T06:19:18;47.28;;;24.80;;
46487;SDS011;32202;48.780;9.204;2023-02-15T06:21:44;61.92;;;28.27;;
46487;SDS011;32202;48.780;9.204;2023-02-15T06:24:09;41.33;;;20.25;;
46487;SDS011;32202;48.780;9.204;2023-02-15T06:26:35;42.97;;;20.55;;
46487;SDS011;32202;48.780;9.204;2023-02-15T06:29:00;50.58;;;25.02;;
46487;SDS011;32202;48.780;9.204;2023-02-15T06:31:26;39.58;;;18.85;;
46487;SDS011;32202;48.780;9.204;2023-02-15T06:33:51;36.95;;;17.88;;
46487;SDS011;32202;48.780;9.204;2023-02-15T06:36:17;39.55;;;18.77;;
46487;SDS011;32202;48.780;9.204;2023-02-15T06:38:43;38.85;;;18.75;;
46487;SDS011;32202;48.780;9.204;2023-02-15T06:41:08;39.03;;;19.55;;
46487;SDS011;32202;48.780;9.204;2023-02-15T06:43:34;39.63;;;19.20;;
46487;SDS011;32202;48.780;9.204;2023-02-15T06:46:00;37.22;;;18.42;;
46487;SDS011;32202;48.780;9.204;2023-02-15T06:48:25;35.85;;;18.10;;
46487;SDS011;32202;48.780;9.204;2023-02-15T06:50:51;34.78;;;16.63;;
46487;SDS011;32202;48.780;9.204;2023-02-15T06:53:17;35.65;;;17.33;;
46487;SDS011;32202;48.780;9.204;2023-02-15T06:55:42;38.35;;;17.23;;
46487;SDS011;32202;48.780;9.204;2023-02-15T06:58:08;34.20;;;17.98;;
46487;SDS011;32202;48.780;9.204;2023-02-15T07:00:34;37.17;;;18.25;;
46487;SDS011;32202;48.780;9.204;2023-02-15T07:02:59;39.60;;;18.40;;
46487;SDS011;32202;48.780;9.204;2023-02-15T07:05:26;35.80;;;17.77;;
46487;SDS011;32202;48.780;9.204;2023-02-15T07:07:56;33.40;;;17.80;;
46487;SDS011;32202;48.780;9.204;2023-02-15T07:10:22;36.80;;;17.45;;
46487;SDS011;32202;48.780;9.204;2023-02-15T07:12:48;37.92;;;18.02;;
46487;SDS011;32202;48.780;9.204;2023-02-15T07:15:14;35.92;;;18.65;;
46487;SDS011;32202;48.780;9.204;2023-02-15T07:17:42;35.92;;;18.38;;
46487;SDS011;32202;48.780;9.204;2023-02-15T07:20:16;56.25;;;26.08;;
46487;SDS011;32202;48.780;9.204;2023-02-15T07:22:43;35.10;;;16.90;;
46487;SDS011;32202;48.780;9.204;2023-02-15T07:25:10;33.85;;;16.63;;
46487;SDS011;32202;48.780;9.204;2023-02-15T07:27:36;34.85;;;17.83;;
46487;SDS011;32202;48.780;9.204;2023-02-15T07:30:03;35.78;;;17.00;;
46487;SDS011;32202;48.780;9.204;2023-02-15T07:32:30;37.45;;;18.75;;
46487;SDS011;32202;48.780;9.204;2023-02-15T07:34:57;35.25;;;17.63;;
46487;SDS011;32202;48.780;9.204;2023-02-15T07:37:23;33.08;;;16.73;;
46487;SDS011;32202;48.780;9.204;2023-02-15T07:39:49;33.65;;;17.02;;
46487;SDS011;32202;48.780;9.204;2023-02-15T07:42:15;38.55;;;18.67;;
46487;SDS011;32202;48.780;9.204;2023-02-15T07:44:42;33.78;;;17.02;;
46487;SDS011;32202;48.780;9.204;2023-02-15T07:47:08;36.05;;;18.85;;
46487;SDS011;32202;48.780;9.204;2023-02-15T07:49:33;29.65;;;16.17;;
46487;SDS011;32202;48.780;9.204;2023-02-15T07:52:00;31.55;;;17.25;;
46487;SDS011;32202;48.780;9.204;2023-02-15T07:54:26;32.22;;;17.10;;
46487;SDS011;32202;48.780;9.204;2023-02-15T07:56:52;30.42;;;16.55;;
46487;SDS011;32202;48.780;9.204;2023-02-15T07:59:17;27.23;;;15.23;;
46487;SDS011;32202;48.780;9.204;2023-02-15T08:01:43;29.10;;;15.68;;
46487;SDS011;32202;48.780;9.204;2023-02-15T08:04:09;30.50;;;16.27;;
46487;SDS011;32202;48.780;9.204;2023-02-15T08:06:37;34.45;;;17.20;;
46487;SDS011;32202;48.780;9.204;2023-02-15T08:09:04;34.72;;;17.02;;
46487;SDS011;32202;48.780;9.204;2023-02-15T08:11:32;31.98;;;17.05;;
46487;SDS011;32202;48.780;9.204;2023-02-15T08:14:02;32.30;;;16.60;;
46487;SDS011;32202;48.780;9.204;2023-02-15T08:18:57;33.42;;;18.17;;
46487;SDS011;32202;48.780;9.204;2023-02-15T08:21:25;30.58;;;17.15;;
46487;SDS011;32202;48.780;9.204;2023-02-15T08:23:53;33.08;;;17.50;;
46487;SDS011;32202;48.780;9.204;2023-02-15T08:26:19;31.10;;;17.35;;
46487;SDS011;32202;48.780;9.204;2023-02-15T08:28:45;31.13;;;17.50;;
46487;SDS011;32202;48.780;9.204;2023-02-15T08:31:11;28.00;;;16.73;;
46487;SDS011;32202;48.780;9.204;2023-02-15T08:33:39;31.10;;;16.98;;
46487;SDS011;32202;48.780;9.204;2023-02-15T08:36:06;33.00;;;16.77;;
46487;SDS011;32202;48.780;9.204;2023-02-15T08:38:34;34.20;;;17.40;;
46487;SDS011;32202;48.780;9.204;2023-02-15T08:42:00;30.33;;;16.80;;
46487;SDS011;32202;48.780;9.204;2023-02-15T08:43:57;28.10;;;16.98;;
46487;SDS011;32202;48.780;9.204;2023-02-15T08:46:26;28.85;;;16.23;;
46487;SDS011;32202;48.780;9.204;2023-02-15T08:48:54;32.70;;;17.70;;
46487;SDS011;32202;48.780;9.204;2023-02-15T08:51:21;31.63;;;17.30;;
46487;SDS011;32202;48.780;9.204;2023-02-15T08:53:48;35.85;;;20.88;;
46487;SDS011;32202;48.780;9.204;2023-02-15T08:56:16;32.97;;;16.15;;
46487;SDS011;32202;48.780;9.204;2023-02-15T08:58:45;26.90;;;15.80;;
46487;SDS011;32202;48.780;9.204;2023-02-15T09:01:14;32.15;;;16.95;;
46487;SDS011;32202;48.780;9.204;2023-02-15T09:03:48;31.48;;;17.75;;
46487;SDS011;32202;48.780;9.204;2023-02-15T09:06:18;28.92;;;16.08;;
46487;SDS011;32202;48.780;9.204;2023-02-15T09:08:44;31.70;;;17.63;;
46487;SDS011;32202;48.780;9.204;2023-02-15T09:11:13;29.45;;;16.80;;
46487;SDS011;32202;48.780;9.204;2023-02-15T09:13:47;31.85;;;16.52;;
46487;SDS011;32202;48.780;9.204;2023-02-15T09:16:20;29.85;;;17.05;;
46487;SDS011;32202;48.780;9.204;2023-02-15T09:18:47;30.60;;;17.48;;
46487;SDS011;32202;48.780;9.204;2023-02-15T09:21:14;28.77;;;17.35;;
46487;SDS011;32202;48.780;9.204;2023-02-15T09:23:41;28.70;;;16.55;;
46487;SDS011;32202;48.780;9.204;2023-02-15T09:26:12;27.15;;;16.45;;
46487;SDS011;32202;48.780;9.204;2023-02-15T09:28:40;29.88;;;17.55;;
46487;SDS011;32202;48.780;9.204;2023-02-15T09:31:19;28.20;;;16.83;;
46487;SDS011;32202;48.780;9.204;2023-02-15T09:33:46;29.10;;;16.40;;
46487;SDS011;32202;48.780;9.204;2023-02-15T09:36:22;27.27;;;16.42;;
46487;SDS011;32202;48.780;9.204;2023-02-15T09:38:52;26.15;;;15.45;;
46487;SDS011;32202;48.780;9.204;2023-02-15T09:44:27;29.88;;;15.82;;
46487;SDS011;32202;48.780;9.204;2023-02-15T09:52:45;23.45;;;15.75;;
46487;SDS011;32202;48.780;9.204;2023-02-15T10:03:37;29.38;;;19.52;;
46487;SDS011;32202;48.780;9.204;2023-02-15T10:12:11;17.50;;;13.60;;
46487;SDS011;32202;48.780;9.204;2023-02-15T10:20:49;29.13;;;20.10;;
46487;SDS011;32202;48.780;9.204;2023-02-15T10:33:48;19.40;;;15.02;;
46487;SDS011;32202;48.780;9.204;2023-02-15T10:39:26;18.52;;;14.02;;
46487;SDS011;32202;48.780;9.204;2023-02-15T10:42:11;20.00;;;13.82;;
46487;SDS011;32202;48.780;9.204;2023-02-15T10:59:14;21.95;;;13.65;;
46487;SDS011;32202;48.780;9.204;2023-02-15T11:07:23;20.40;;;13.63;;
46487;SDS011;32202;48.780;9.204;2023-02-15T11:12:53;22.35;;;13.50;;
46487;SDS011;32202;48.780;9.204;2023-02-15T11:15:31;20.02;;;14.05;;
46487;SDS011;32202;48.780;9.204;2023-02-15T11:23:06;16.42;;;12.73;;
46487;SDS011;32202;48.780;9.204;2023-02-15T11:25:41;19.00;;;13.73;;
46487;SDS011;32202;48.780;9.204;2023-02-15T11:28:23;19.40;;;14.35;;
46487;SDS011;32202;48.780;9.204;2023-02-15T11:30:55;21.38;;;14.15;;
46487;SDS011;32202;48.780;9.204;2023-02-15T11:33:27;22.42;;;18.08;;
46487;SDS011;32202;48.780;9.204;2023-02-15T11:38:38;20.33;;;14.02;;
46487;SDS011;32202;48.780;9.204;2023-02-15T11:43:49;21.05;;;13.60;;
46487;SDS011;32202;48.780;9.204;2023-02-15T11:46:25;19.00;;;14.43;;
46487;SDS011;32202;48.780;9.204;2023-02-15T11:48:51;20.20;;;14.02;;
46487;SDS011;32202;48.780;9.204;2023-02-15T11:51:19;18.25;;;14.35;;
46487;SDS011;32202;48.780;9.204;2023-02-15T11:53:46;25.20;;;14.85;;
46487;SDS011;32202;48.780;9.204;2023-02-15T11:56:16;19.50;;;14.65;;
46487;SDS011;32202;48.780;9.204;2023-02-15T12:03:46;20.58;;;13.60;;
46487;SDS011;32202;48.780;9.204;2023-02-15T12:06:17;18.33;;;13.75;;
46487;SDS011;32202;48.780;9.204;2023-02-15T12:09:06;18.80;;;14.23;;
46487;SDS011;32202;48.780;9.204;2023-02-15T12:11:38;23.15;;;14.10;;
46487;SDS011;32202;48.780;9.204;2023-02-15T12:14:06;17.42;;;14.25;;
46487;SDS011;32202;48.780;9.204;2023-02-15T12:16:40;19.33;;;14.45;;
46487;SDS011;32202;48.780;9.204;2023-02-15T12:19:10;21.17;;;14.73;;
46487;SDS011;32202;48.780;9.204;2023-02-15T12:21:52;20.05;;;13.88;;
46487;SDS011;32202;48.780;9.204;2023-02-15T12:26:55;16.70;;;13.10;;
46487;SDS011;32202;48.780;9.204;2023-02-15T12:29:28;18.23;;;14.93;;
46487;SDS011;32202;48.780;9.204;2023-02-15T12:31:56;19.63;;;14.00;;
46487;SDS011;32202;48.780;9.204;2023-02-15T12:34:25;18.08;;;14.10;;
46487;SDS011;32202;48.780;9.204;2023-02-15T12:36:56;21.88;;;15.13;;
46487;SDS011;32202;48.780;9.204;2023-02-15T12:39:28;21.23;;;17.40;;
46487;SDS011;32202;48.780;9.204;2023-02-15T12:44:38;21.70;;;14.77;;
46487;SDS011;32202;48.780;9.204;2023-02-15T12:47:29;19.45;;;13.90;;
46487;SDS011;32202;48.780;9.204;2023-02-15T12:50:06;19.15;;;14.32;;
46487;SDS011;32202;48.780;9.204;2023-02-15T12:52:43;20.40;;;15.35;;
46487;SDS011;32202;48.780;9.204;2023-02-15T12:58:04;18.15;;;15.20;;
46487;SDS011;32202;48.780;9.204;2023-02-15T13:00:31;21.85;;;17.38;;
46487;SDS011;32202;48.780;9.204;2023-02-15T13:02:57;19.98;;;16.55;;
46487;SDS011;32202;48.780;9.204;2023-02-15T13:05:39;21.45;;;14.63;;
46487;SDS011;32202;48.780;9.204;2023-02-15T13:08:15;23.05;;;16.15;;
46487;SDS011;32202;48.780;9.204;2023-02-15T13:13:31;17.75;;;14.73;;
46487;SDS011;32202;48.780;9.204;2023-02-15T13:20:59;19.00;;;14.98;;
46487;SDS011;32202;48.780;9.204;2023-02-15T13:23:44;19.35;;;14.57;;
46487;SDS011;32202;48.780;9.204;2023-02-15T13:26:18;19.15;;;13.98;;
46487;SDS011;32202;48.780;9.204;2023-02-15T13:28:47;17.58;;;14.15;;
46487;SDS011;32202;48.780;9.204;2023-02-15T13:31:19;21.95;;;15.13;;
46487;SDS011;32202;48.780;9.204;2023-02-15T13:33:50;17.42;;;14.20;;
46487;SDS011;32202;48.780;9.204;2023-02-15T13:39:54;20.80;;;15.75;;
46487;SDS011;32202;48.780;9.204;2023-02-15T13:42:37;20.65;;;15.55;;
46487;SDS011;32202;48.780;9.204;2023-02-15T13:45:20;18.40;;;15.45;;
46487;SDS011;32202;48.780;9.204;2023-02-15T13:50:48;20.73;;;14.93;;
46487;SDS011;32202;48.780;9.204;2023-02-15T13:53:34;21.27;;;15.25;;
46487;SDS011;32202;48.780;9.204;2023-02-15T14:01:19;20.45;;;15.65;;
46487;SDS011;32202;48.780;9.204;2023-02-15T14:09:00;21.95;;;15.35;;
46487;SDS011;32202;48.780;9.204;2023-02-15T14:11:51;20.38;;;14.68;;
46487;SDS011;32202;48.780;9.204;2023-02-15T14:14:43;23.52;;;17.08;;
46487;SDS011;32202;48.780;9.204;2023-02-15T14:22:49;21.75;;;16.02;;
46487;SDS011;32202;48.780;9.204;2023-02-15T14:25:25;21.50;;;15.77;;
46487;SDS011;32202;48.780;9.204;2023-02-15T14:30:32;18.40;;;14.82;;
46487;SDS011;32202;48.780;9.204;2023-02-15T14:33:07;21.90;;;16.15;;
46487;SDS011;32202;48.780;9.204;2023-02-15T14:35:41;19.92;;;15.48;;
46487;SDS011;32202;48.780;9.204;2023-02-15T14:41:20;22.90;;;15.75;;
46487;SDS011;32202;48.780;9.204;2023-02-15T14:46:47;23.67;;;15.23;;
46487;SDS011;32202;48.780;9.204;2023-02-15T14:49:17;27.33;;;16.40;;
46487;SDS011;32202;48.780;9.204;2023-02-15T14:57:20;26.10;;;15.25;;
46487;SDS011;32202;48.780;9.204;2023-02-15T15:02:18;18.77;;;13.90;;
46487;SDS011;32202;48.780;9.204;2023-02-15T15:05:02;27.48;;;15.05;;
46487;SDS011;32202;48.780;9.204;2023-02-15T15:15:32;26.60;;;16.50;;
46487;SDS011;32202;48.780;9.204;2023-02-15T15:18:42;25.17;;;16.55;;
46487;SDS011;32202;48.780;9.204;2023-02-15T15:46:35;43.53;;;26.85;;
46487;SDS011;32202;48.780;9.204;2023-02-15T15:49:12;30.40;;;21.50;;
46487;SDS011;32202;48.780;9.204;2023-02-15T15:51:44;36.92;;;21.08;;
46487;SDS011;32202;48.780;9.204;2023-02-15T15:54:20;39.28;;;24.38;;
46487;SDS011;32202;48.780;9.204;2023-02-15T15:57:12;40.17;;;22.95;;
46487;SDS011;32202;48.780;9.204;2023-02-15T15:59:43;36.40;;;22.35;;
46487;SDS011;32202;48.780;9.204;2023-02-15T16:02:11;42.80;;;25.73;;
46487;SDS011;32202;48.780;9.204;2023-02-15T16:04:41;44.45;;;27.55;;
46487;SDS011;32202;48.780;9.204;2023-02-15T16:07:15;36.20;;;22.42;;
46487;SDS011;32202;48.780;9.204;2023-02-15T16:10:02;39.08;;;21.60;;
46487;SDS011;32202;48.780;9.204;2023-02-15T16:12:36;43.22;;;24.23;;
46487;SDS011;32202;48.780;9.204;2023-02-15T16:15:20;39.42;;;23.67;;
46487;SDS011;32202;48.780;9.204;2023-02-15T16:17:54;38.78;;;20.90;;
46487;SDS011;32202;48.780;9.204;2023-02-15T16:20:26;34.85;;;20.33;;
46487;SDS011;32202;48.780;9.204;2023-02-15T16:28:50;32.15;;;19.67;;
46487;SDS011;32202;48.780;9.204;2023-02-15T16:31:17;33.00;;;18.63;;
46487;SDS011;32202;48.780;9.204;2023-02-15T16:33:44;33.05;;;19.25;;
46487;SDS011;32202;48.780;9.204;2023-02-15T16:36:26;41.03;;;23.77;;
46487;SDS011;32202;48.780;9.204;2023-02-15T16:43:52;39.25;;;23.83;;
46487;SDS011;32202;48.780;9.204;2023-02-15T16:49:07;50.30;;;25.48;;
46487;SDS011;32202;48.780;9.204;2023-02-15T16:51:41;35.53;;;21.95;;
46487;SDS011;32202;48.780;9.204;2023-02-15T16:54:14;36.60;;;19.98;;
46487;SDS011;32202;48.780;9.204;2023-02-15T16:56:43;37.85;;;21.23;;
46487;SDS011;32202;48.780;9.204;2023-02-15T16:59:16;40.33;;;22.75;;
46487;SDS011;32202;48.780;9.204;2023-02-15T17:01:53;44.13;;;25.15;;
46487;SDS011;32202;48.780;9.204;2023-02-15T17:07:29;39.80;;;23.08;;
46487;SDS011;32202;48.780;9.204;2023-02-15T17:09:52;39.15;;;23.20;;
46487;SDS011;32202;48.780;9.204;2023-02-15T17:18:18;51.92;;;26.00;;
46487;SDS011;32202;48.780;9.204;2023-02-15T17:20:47;50.08;;;25.05;;
46487;SDS011;32202;48.780;9.204;2023-02-15T17:28:50;46.75;;;26.88;;
46487;SDS011;32202;48.780;9.204;2023-02-15T17:31:27;36.35;;;20.55;;
46487;SDS011;32202;48.780;9.204;2023-02-15T17:33:56;43.92;;;26.17;;
46487;SDS011;32202;48.780;9.204;2023-02-15T17:36:24;60.88;;;31.52;;
46487;SDS011;32202;48.780;9.204;2023-02-15T17:41:29;110.30;;;54.45;;
46487;SDS011;32202;48.780;9.204;2023-02-15T17:43:56;100.47;;;50.97;;
46487;SDS011;32202;48.780;9.204;2023-02-15T17:46:22;96.00;;;48.75;;
46487;SDS011;32202;48.780;9.204;2023-02-15T17:48:50;82.57;;;44.67;;
46487;SDS011;32202;48.780;9.204;2023-02-15T17:51:17;128.40;;;67.55;;
46487;SDS011;32202;48.780;9.204;2023-02-15T17:53:44;142.80;;;71.38;;
46487;SDS011;32202;48.780;9.204;2023-02-15T17:56:30;194.88;;;95.40;;
46487;SDS011;32202;48.780;9.204;2023-02-15T17:58:56;74.22;;;38.55;;
46487;SDS011;32202;48.780;9.204;2023-02-15T18:01:22;108.88;;;53.53;;
46487;SDS011;32202;48.780;9.204;2023-02-15T18:04:11;79.03;;;41.55;;
46487;SDS011;32202;48.780;9.204;2023-02-15T18:06:57;189.20;;;93.32;;
46487;SDS011;32202;48.780;9.204;2023-02-15T18:09:42;187.80;;;96.10;;
46487;SDS011;32202;48.780;9.204;2023-02-15T18:12:29;109.20;;;55.30;;
46487;SDS011;32202;48.780;9.204;2023-02-15T18:14:57;102.68;;;49.42;;
46487;SDS011;32202;48.780;9.204;2023-02-15T18:17:35;121.88;;;57.88;;
46487;SDS011;32202;48.780;9.204;2023-02-15T18:20:06;114.30;;;56.28;;
46487;SDS011;32202;48.780;9.204;2023-02-15T18:22:48;72.80;;;37.10;;
46487;SDS011;32202;48.780;9.204;2023-02-15T18:25:17;59.72;;;32.50;;
46487;SDS011;32202;48.780;9.204;2023-02-15T18:27:44;151.85;;;74.38;;
46487;SDS011;32202;48.780;9.204;2023-02-15T18:30:13;90.10;;;45.55;;
46487;SDS011;32202;48.780;9.204;2023-02-15T18:32:42;68.53;;;35.25;;
46487;SDS011;32202;48.780;9.204;2023-02-15T18:35:13;52.22;;;29.55;;